Time;durP1;ratioP1;P1;durP2;ratioP2;P2;SDS_P1;SDS_P2;PMS_P1;PMS_P2;Temp;Humidity;BMP_temperature;BMP_pressure;BME280_temperature;BME280_humidity;BME280_pressure;Samples;Min_cycle;Max_cycle;Signal;HPM_P1;HPM_P2
2023/06/29 00:01:32;;;;;;;2.80;1.00;;;16.50;86.40;;;15.42;69.23;100070.69;12459496;23;96945;-89
2023/06/29 00:06:37;;;;;;;1.63;1.10;;;16.50;86.70;;;15.53;68.40;100076.28;12460265;23;96403;-88
2023/06/29 00:11:40;;;;;;;1.85;1.00;;;16.60;86.40;;;15.65;68.09;100087.25;12459104;23;97188;-89
2023/06/29 00:16:44;;;;;;;2.45;1.20;;;16.70;86.10;;;15.67;68.74;100077.16;12459641;23;96883;-89
2023/06/29 00:21:48;;;;;;;2.85;1.10;;;16.70;86.40;;;15.62;69.25;100076.94;12459466;23;96446;-88
2023/06/29 00:26:51;;;;;;;1.80;1.15;;;16.70;86.80;;;15.55;69.08;100073.41;12461056;23;96527;-88
2023/06/29 00:31:55;;;;;;;2.50;1.23;;;16.60;87.00;;;15.60;68.74;100070.13;12458957;23;97284;-90
2023/06/29 00:36:59;;;;;;;3.78;1.17;;;16.60;86.80;;;15.72;68.22;100069.34;12459197;23;96985;-89
2023/06/29 00:42:03;;;;;;;3.70;1.27;;;16.70;86.50;;;15.79;67.76;100061.31;12485468;23;96424;-89
2023/06/29 00:47:08;;;;;;;2.05;1.05;;;16.90;86.30;;;15.90;67.27;100070.59;12459077;23;96868;-89
2023/06/29 00:52:11;;;;;;;4.25;1.00;;;17.00;86.00;;;15.94;67.49;100072.63;12460679;23;97021;-89
2023/06/29 00:57:16;;;;;;;1.85;0.90;;;17.00;85.80;;;15.92;67.91;100063.16;12460217;23;96460;-89
2023/06/29 01:02:19;;;;;;;2.35;1.20;;;17.10;85.90;;;15.91;67.86;100061.53;12429587;23;96596;-89
2023/06/29 01:07:42;;;;;;;2.65;1.17;;;17.10;85.80;;;15.85;67.47;100054.31;12459126;23;97171;-89
2023/06/29 01:12:49;;;;;;;2.28;1.15;;;17.00;85.40;;;15.81;65.74;100047.69;12460214;23;96597;-87
2023/06/29 01:17:57;;;;;;;4.18;1.42;;;17.00;84.90;;;15.86;65.60;100050.59;12460043;23;96532;-88
2023/06/29 01:23:17;;;;;;;1.52;0.98;;;16.90;84.40;;;15.92;64.46;100050.59;12460476;23;97741;-87
2023/06/29 01:28:21;;;;;;;2.73;1.17;;;17.00;83.80;;;15.98;64.04;100046.25;12460973;23;98156;-88
2023/06/29 01:33:24;;;;;;;3.67;1.00;;;17.10;83.70;;;16.00;64.00;100045.00;12459902;23;96907;-88
2023/06/29 01:38:37;;;;;;;2.00;0.80;;;17.10;83.50;;;16.04;63.68;100046.25;12459043;23;96505;-89
2023/06/29 01:43:42;;;;;;;2.97;1.10;;;17.10;83.10;;;16.09;64.11;100040.28;12460146;23;97045;-88
2023/06/29 01:48:47;;;;;;;3.42;1.50;;;17.20;83.20;;;16.11;64.27;100050.78;12459490;23;96303;-89
2023/06/29 01:53:50;;;;;;;4.90;1.38;;;17.20;83.20;;;16.10;64.54;100049.16;12460073;23;97863;-88
2023/06/29 01:58:54;;;;;;;4.47;1.80;;;17.20;83.30;;;16.05;64.92;100057.81;12458174;23;96877;-89
2023/06/29 02:03:59;;;;;;;2.83;1.30;;;17.20;83.50;;;16.04;63.52;100061.50;12459922;23;96613;-88
2023/06/29 02:09:02;;;;;;;2.70;1.10;;;17.20;82.90;;;16.03;64.06;100059.88;12459444;23;96453;-95
2023/06/29 02:14:06;;;;;;;3.97;1.30;;;17.20;83.00;;;15.97;63.44;100055.34;12459429;23;96307;-93
2023/06/29 02:19:10;;;;;;;3.25;1.10;;;17.10;82.80;;;15.97;63.52;100056.16;12457836;23;96512;-94
2023/06/29 02:24:13;;;;;;;4.80;1.20;;;17.10;82.80;;;16.02;63.54;100064.41;12458583;23;96419;-91
2023/06/29 02:29:17;;;;;;;3.88;1.98;;;17.10;82.70;;;16.04;63.86;100056.16;12457649;23;96369;-93
2023/06/29 02:34:21;;;;;;;2.80;1.67;;;17.20;82.70;;;16.09;64.04;100059.03;12459246;23;96681;-93
2023/06/29 02:39:25;;;;;;;2.92;1.35;;;17.20;82.80;;;16.09;63.66;100053.69;12459617;23;96421;-93
2023/06/29 02:44:28;;;;;;;1.92;1.10;;;17.30;82.50;;;16.03;63.21;100049.97;12459531;23;96500;-93
2023/06/29 02:49:33;;;;;;;2.58;1.02;;;17.20;82.80;;;16.08;62.45;100053.91;12461164;23;97221;-94
2023/06/29 02:54:36;;;;;;;2.42;1.10;;;17.30;82.00;;;16.04;62.46;100046.25;12463053;23;96406;-93
2023/06/29 02:59:40;;;;;;;2.28;0.90;;;17.20;81.80;;;16.06;62.24;100046.03;12461235;23;96489;-92
2023/06/29 03:04:43;;;;;;;1.75;0.85;;;17.20;81.70;;;16.05;62.53;100044.41;12485761;23;96534;-95
2023/06/29 03:09:47;;;;;;;4.45;1.45;;;17.20;81.90;;;15.99;63.00;100034.50;12461039;23;96701;-94
2023/06/29 03:14:50;;;;;;;5.30;1.10;;;17.10;82.20;;;15.99;63.30;100042.53;12460339;23;97640;-92
2023/06/29 03:19:54;;;;;;;2.22;1.20;;;17.10;82.50;;;16.02;63.25;100040.28;12462491;23;96446;-94
2023/06/29 03:24:58;;;;;;;2.25;1.05;;;17.10;82.60;;;16.02;63.10;100048.31;12460866;23;96539;-92
2023/06/29 03:30:02;;;;;;;3.00;1.33;;;17.10;82.50;;;16.07;63.52;100047.69;12461468;23;96535;-92
2023/06/29 03:35:07;;;;;;;1.92;0.98;;;17.10;82.70;;;16.03;63.54;100052.66;12460788;23;96628;-92
2023/06/29 03:40:11;;;;;;;2.78;1.10;;;17.10;82.90;;;15.99;63.93;100035.31;12461415;23;97275;-91
2023/06/29 03:45:15;;;;;;;2.22;1.45;;;17.10;83.00;;;16.05;64.07;100049.75;12461666;23;96751;-93
2023/06/29 03:50:19;;;;;;;3.08;1.40;;;17.10;83.20;;;16.10;64.28;100060.69;12462088;23;96508;-96
2023/06/29 03:55:24;;;;;;;2.63;1.27;;;17.20;83.50;;;16.20;64.25;100058.41;12461676;23;96965;-95
2023/06/29 04:00:27;;;;;;;4.30;1.50;;;17.30;83.40;;;16.26;64.43;100054.91;12460197;23;96510;-94
2023/06/29 04:05:32;;;;;;;3.33;1.45;;;17.30;83.50;;;16.37;65.00;100055.28;12464741;23;97057;-92
2023/06/29 04:10:35;;;;;;;3.83;1.27;;;17.40;83.70;;;16.44;65.30;100056.94;12464584;23;96472;-92
2023/06/29 04:15:39;;;;;;;3.30;1.30;;;17.60;84.10;;;16.52;65.35;100063.94;12459839;23;97036;-93
2023/06/29 04:20:43;;;;;;;1.98;1.15;;;17.60;84.00;;;16.60;64.88;100066.38;12460606;23;96974;-91
2023/06/29 04:25:47;;;;;;;3.20;1.10;;;17.70;84.00;;;16.67;65.18;100055.63;12460804;23;96526;-93
2023/06/29 04:30:50;;;;;;;1.65;0.98;;;17.70;84.20;;;16.77;65.70;100051.50;12457713;23;97023;-92
2023/06/29 04:35:55;;;;;;;3.00;1.25;;;17.80;84.40;;;16.88;65.29;100051.88;12485238;23;96445;-93
2023/06/29 04:41:05;;;;;;;2.35;1.10;;;17.90;84.40;;;16.98;64.63;100050.41;12437531;23;96646;-93
2023/06/29 04:46:08;;;;;;;4.32;1.48;;;18.00;84.80;;;17.17;64.07;100050.53;12483996;23;97273;-94
2023/06/29 04:51:13;;;;;;;3.00;1.77;;;18.20;84.10;;;17.30;63.93;100040.53;12459450;23;96621;-94
2023/06/29 04:56:19;;;;;;;2.35;1.10;;;18.30;84.00;;;17.42;63.52;100029.91;12487668;23;96461;-95
2023/06/29 05:01:23;;;;;;;3.58;1.38;;;18.40;83.70;;;17.61;63.10;100041.56;12460448;23;96635;-92
2023/06/29 05:06:27;;;;;;;3.05;1.30;;;18.60;83.50;;;17.74;62.56;100038.00;12462701;23;97074;-90
2023/06/29 05:11:31;;;;;;;1.52;1.10;;;18.70;83.10;;;17.78;62.35;100031.97;12485249;23;96472;-90
2023/06/29 05:16:37;;;;;;;5.32;1.60;;;18.80;83.10;;;17.91;62.71;100036.41;12459987;23;96825;-89
2023/06/29 05:21:41;;;;;;;4.38;1.77;;;18.90;83.40;;;18.04;62.94;100032.78;12485097;23;96830;-90
2023/06/29 05:26:44;;;;;;;4.63;1.70;;;19.00;83.40;;;18.14;62.69;100039.31;12461235;23;96426;-87
2023/06/29 05:31:48;;;;;;;2.25;1.52;;;19.10;83.30;;;18.29;62.24;100044.34;12458141;23;97070;-88
2023/06/29 05:36:52;;;;;;;5.03;1.50;;;19.20;83.00;;;18.39;62.12;100035.75;12458524;23;97031;-89
2023/06/29 05:41:56;;;;;;;2.78;1.13;;;19.30;83.00;;;18.51;62.48;100030.47;12434258;23;96509;-88
2023/06/29 05:47:00;;;;;;;2.72;1.60;;;19.50;83.20;;;18.73;62.18;100036.25;12459167;23;96508;-88
2023/06/29 05:52:04;;;;;;;2.30;1.30;;;19.70;83.20;;;18.93;61.99;100042.22;12460971;23;96844;-88
2023/06/29 05:57:07;;;;;;;5.97;1.30;;;19.80;83.10;;;19.06;61.56;100043.91;12484438;23;96382;-88
2023/06/29 06:02:11;;;;;;;3.58;1.67;;;20.00;82.70;;;19.18;59.18;100039.41;12458711;23;97431;-89
2023/06/29 06:07:15;;;;;;;2.67;1.65;;;20.10;81.40;;;19.32;59.62;100042.75;12459621;23;96931;-86
2023/06/29 06:12:19;;;;;;;4.38;1.52;;;20.20;81.30;;;19.43;58.67;100036.56;12482621;23;96967;-86
2023/06/29 06:17:23;;;;;;;3.70;1.92;;;20.40;80.50;;;19.55;58.71;100047.38;12458952;23;96570;-90
2023/06/29 06:22:27;;;;;;;3.80;1.67;;;20.50;80.30;;;19.63;58.29;100039.00;12458698;23;96429;-90
2023/06/29 06:27:30;;;;;;;2.85;1.60;;;20.60;80.40;;;19.76;58.67;100044.19;12487358;23;96478;-90
2023/06/29 06:32:36;;;;;;;2.28;1.33;;;20.70;80.50;;;19.84;58.54;100035.75;12461131;23;96529;-93
2023/06/29 06:37:40;;;;;;;2.47;1.60;;;20.80;80.40;;;20.10;59.09;100045.28;12448904;23;96553;-93
2023/06/29 06:42:49;;;;;;;3.78;1.67;;;21.00;80.60;;;20.27;58.51;100045.38;12465867;23;97262;-90
2023/06/29 06:47:53;;;;;;;4.18;1.50;;;21.20;80.50;;;20.45;56.91;100048.00;12461283;23;96505;-90
2023/06/29 06:52:57;;;;;;;3.88;1.40;;;21.40;79.70;;;20.66;57.31;100043.03;12461597;23;96433;-94
2023/06/29 06:58:00;;;;;;;3.15;1.48;;;21.60;79.50;;;20.87;57.69;100044.28;12438993;23;96511;-95
2023/06/29 07:03:04;;;;;;;2.67;1.45;;;21.80;79.60;;;21.03;56.29;100043.53;12455272;23;97099;-95
2023/06/29 07:08:13;;;;;;;4.65;1.77;;;22.00;78.80;;;21.22;56.32;100039.56;12464402;23;97029;-95
2023/06/29 07:13:19;;;;;;;2.60;1.40;;;22.20;78.60;;;21.38;55.89;100046.13;12461176;23;96615;-95
2023/06/29 07:18:22;;;;;;;2.15;1.33;;;22.40;78.40;;;21.57;54.75;100061.06;12459682;23;97155;-90
2023/06/29 07:23:26;;;;;;;2.45;1.50;;;22.60;77.50;;;21.71;55.50;100074.28;12486270;23;96476;-92
2023/06/29 07:28:33;;;;;;;5.93;1.60;;;22.70;77.70;;;21.76;53.91;100063.53;12463043;23;96604;-85
2023/06/29 07:33:36;;;;;;;2.97;1.58;;;22.80;76.70;;;21.91;54.06;100067.34;12461038;23;96437;-88
2023/06/29 07:38:42;;;;;;;2.30;1.40;;;22.90;76.50;;;22.02;54.00;100056.69;12459620;23;97327;-90
2023/06/29 07:44:00;;;;;;;2.72;1.52;;;23.00;76.60;;;22.07;54.72;100048.63;12457673;23;97584;-91
2023/06/29 07:49:03;;;;;;;3.25;1.63;;;23.00;76.80;;;22.14;54.37;100044.72;12459011;23;96869;-93
2023/06/29 07:54:08;;;;;;;2.50;1.58;;;23.10;76.90;;;22.33;54.31;100044.47;12453516;23;97142;-90
2023/06/29 07:59:12;;;;;;;2.60;1.35;;;23.30;76.80;;;22.45;53.35;100042.47;12460741;23;97055;-89
2023/06/29 08:04:16;;;;;;;2.15;1.48;;;23.40;76.10;;;22.62;53.36;100045.97;12482893;23;97630;-91
2023/06/29 08:09:39;;;;;;;3.53;1.38;;;23.50;76.10;;;22.84;51.87;100051.38;12484509;23;96465;-93
2023/06/29 08:14:43;;;;;;;2.13;1.25;;;23.70;75.40;;;22.97;50.03;100042.09;12457584;23;97096;-94
2023/06/29 08:19:47;;;;;;;2.55;1.40;;;23.80;73.40;;;23.04;50.54;100044.59;12459215;23;96518;-95
2023/06/29 08:24:51;;;;;;;2.67;1.33;;;24.00;73.60;;;23.04;49.18;100053.56;12460715;23;96873;-91
2023/06/29 08:29:55;;;;;;;3.70;1.40;;;23.90;72.30;;;23.02;49.98;100050.25;12459145;23;96639;-92
2023/06/29 08:34:58;;;;;;;4.30;1.77;;;24.00;72.60;;;23.08;51.14;100049.25;12434958;23;96454;-90
2023/06/29 08:40:04;;;;;;;2.53;1.30;;;24.00;73.40;;;23.15;50.93;100062.59;12458176;23;96963;-96
2023/06/29 08:45:11;;;;;;;3.83;1.40;;;24.10;73.20;;;23.10;50.87;100049.81;12466576;23;96580;-96
2023/06/29 08:50:26;;;;;;;2.22;1.42;;;24.10;73.30;;;23.13;50.82;100054.72;12446748;23;96339;-96
2023/06/29 08:55:36;;;;;;;2.22;1.48;;;24.10;73.40;;;23.26;50.58;100052.69;12468663;23;96386;-96
2023/06/29 09:00:42;;;;;;;3.38;1.55;;;24.20;72.70;;;23.30;50.00;100054.66;12467400;23;97023;-96
2023/06/29 09:05:54;;;;;;;3.92;1.40;;;24.30;72.60;;;23.32;50.77;100062.50;12468389;23;96525;-96
2023/06/29 09:11:02;;;;;;;4.60;1.38;;;24.30;72.80;;;23.21;50.03;100051.56;12465657;23;96568;-93
2023/06/29 09:16:06;;;;;;;2.95;1.30;;;24.20;72.20;;;23.12;50.68;100055.81;12461870;23;96792;-95
2023/06/29 09:21:09;;;;;;;6.75;1.60;;;24.10;72.60;;;23.35;50.78;100043.03;12468104;23;96880;-93
2023/06/29 09:26:16;;;;;;;2.45;1.13;;;24.30;73.30;;;23.70;48.18;100054.25;12458719;23;96482;-92
2023/06/29 09:31:21;;;;;;;3.10;1.45;;;24.70;71.40;;;23.60;48.63;100051.41;12461779;23;96843;-91
2023/06/29 09:36:27;;;;;;;2.55;1.20;;;24.70;70.90;;;23.62;48.67;100046.56;12458471;23;96954;-91
2023/06/29 09:41:31;;;;;;;3.38;1.15;;;24.60;70.80;;;23.69;49.02;100047.19;12459467;23;96557;-93
2023/06/29 09:46:35;;;;;;;2.03;1.30;;;24.70;71.00;;;23.76;49.42;100042.38;12460278;23;96525;-92
2023/06/29 09:51:40;;;;;;;2.05;1.13;;;24.80;71.20;;;23.87;48.17;100050.56;12461244;23;96591;-90
2023/06/29 09:56:47;;;;;;;1.67;1.20;;;24.90;70.60;;;23.83;48.92;100050.28;12459071;23;96487;-92
2023/06/29 10:01:51;;;;;;;3.05;1.25;;;24.80;70.50;;;23.83;48.54;100054.91;12469808;23;97585;-91
2023/06/29 10:07:09;;;;;;;1.50;1.10;;;24.80;70.50;;;23.84;47.72;100051.13;12463275;23;96606;-96
2023/06/29 10:12:14;;;;;;;2.17;1.00;;;24.80;69.80;;;24.08;45.14;100038.00;12436651;23;97010;-90
2023/06/29 10:17:41;;;;;;;2.47;1.10;;;25.10;68.20;;;24.19;45.16;100032.38;12485078;23;96421;-92
2023/06/29 10:22:48;;;;;;;4.97;1.40;;;25.20;67.20;;;24.21;46.38;100038.34;12439206;23;96586;-96
2023/06/29 10:27:59;;;;;;;2.28;1.13;;;25.20;68.00;;;24.32;45.83;100012.09;12441957;23;96447;-96
2023/06/29 10:33:09;;;;;;;1.85;1.08;;;25.40;67.80;;;24.60;44.59;100038.09;12440779;23;96771;-94
2023/06/29 10:38:19;;;;;;;1.90;1.20;;;25.60;67.70;;;24.53;45.33;100029.34;12462199;23;97534;-95
2023/06/29 10:49:01;;;;;;;3.38;1.30;;;25.50;66.20;;;24.44;44.41;100029.03;12349784;23;96453;-94
2023/06/29 10:54:05;;;;;;;3.22;1.50;;;25.50;65.80;;;24.44;45.53;100025.50;12344518;23;96533;-94
2023/06/29 10:59:09;;;;;;;1.98;1.67;;;25.50;66.90;;;24.50;44.49;100025.25;12344643;23;96901;-94
2023/06/29 11:04:12;;;;;;;1.70;1.05;;;25.50;66.10;;;24.53;44.37;100021.22;12344053;23;96873;-96
2023/06/29 11:09:17;;;;;;;2.08;1.20;;;25.50;66.10;;;24.69;43.13;100011.22;12344915;23;96469;-94
2023/06/29 11:14:21;;;;;;;1.48;1.20;;;25.70;65.60;;;24.68;44.08;100015.84;12321534;23;96754;-94
2023/06/29 11:19:29;;;;;;;2.25;1.30;;;25.70;65.10;;;24.55;45.12;100013.59;12344326;23;96508;-94
2023/06/29 11:24:32;;;;;;;1.38;1.02;;;25.60;66.80;;;24.69;43.54;100009.31;12347524;23;96523;-93
2023/06/29 11:29:38;;;;;;;2.60;1.40;;;25.70;65.40;;;24.99;43.40;100010.50;12343312;23;96577;-93
2023/06/29 11:34:41;;;;;;;3.88;1.40;;;26.00;65.10;;;25.34;42.19;100009.78;12344848;23;96561;-95
2023/06/29 11:39:49;;;;;;;2.20;1.30;;;26.40;64.10;;;25.39;43.29;100003.56;12342836;23;96627;-94
2023/06/29 11:45:02;;;;;;;1.30;1.17;;;26.50;64.30;;;25.69;42.50;100009.00;12323013;23;96573;-96
2023/06/29 11:50:10;;;;;;;2.88;1.42;;;26.80;64.20;;;25.71;42.17;99993.22;12347856;23;96473;-96
2023/06/29 11:55:15;;;;;;;1.58;1.20;;;26.80;63.10;;;25.68;41.71;100001.94;12346180;23;96546;-96
2023/06/29 12:00:18;;;;;;;2.05;1.25;;;26.80;63.00;;;25.67;42.78;100000.31;12354210;23;96472;-96
2023/06/29 12:05:28;;;;;;;3.03;1.13;;;26.70;63.80;;;26.04;41.87;99986.41;12345172;23;97013;-96
2023/06/29 12:10:38;;;;;;;;;;;27.20;63.10;;;26.51;40.55;99985.22;12345024;23;96694;-96
2023/06/29 12:15:45;;;;;;;1.42;1.13;;;27.90;61.50;;;26.92;40.33;99974.94;12368173;23;96620;-96
2023/06/29 12:20:53;;;;;;;5.47;1.15;;;28.60;61.20;;;27.26;39.65;99963.31;12324324;23;96513;-96
2023/06/29 12:25:57;;;;;;;1.83;1.25;;;29.30;60.70;;;27.76;40.00;99961.28;12348252;23;96843;-96
2023/06/29 12:31:03;;;;;;;3.75;1.33;;;30.00;59.20;;;28.39;38.18;99958.44;12366930;23;96974;-96
2023/06/29 12:36:07;;;;;;;1.48;1.10;;;30.90;58.20;;;28.85;34.77;99946.94;12370236;23;96467;-96
2023/06/29 12:41:10;;;;;;;1.52;1.02;;;31.50;55.60;;;29.36;35.46;99943.44;12344615;23;97188;-96
2023/06/29 12:46:14;;;;;;;1.92;1.00;;;31.70;55.30;;;30.05;33.78;99932.66;12374821;23;96463;-96
2023/06/29 12:51:18;;;;;;;2.00;1.10;;;32.10;54.50;;;30.43;32.36;99938.78;12349370;23;96757;-96
2023/06/29 12:56:21;;;;;;;3.13;1.20;;;32.00;53.00;;;30.52;32.22;99931.44;12341271;23;96964;-96
2023/06/29 13:01:25;;;;;;;1.55;1.20;;;31.70;52.20;;;30.46;31.94;99929.91;12317053;23;96811;-95
2023/06/29 13:06:31;;;;;;;2.13;1.10;;;31.70;52.30;;;30.31;32.73;99922.03;12344572;23;96466;-95
2023/06/29 13:11:35;;;;;;;2.70;1.10;;;31.70;52.50;;;29.68;33.07;99923.47;12340895;23;96856;-96
2023/06/29 13:16:39;;;;;;;1.35;1.00;;;31.20;52.40;;;29.36;34.13;99923.47;12340551;23;96365;-96
2023/06/29 13:21:43;;;;;;;1.05;0.95;;;30.90;53.40;;;29.54;34.12;99917.97;12339419;23;96924;-96
2023/06/29 13:26:47;;;;;;;1.98;1.20;;;31.20;53.50;;;30.07;33.57;99909.31;12366274;23;96742;-96
2023/06/29 13:31:50;;;;;;;2.70;1.40;;;31.60;53.60;;;30.47;33.28;99906.06;12349573;23;96880;-96
2023/06/29 13:36:55;;;;;;;1.50;1.08;;;31.80;53.90;;;30.84;33.23;99907.75;12344614;23;96435;-96
2023/06/29 13:41:58;;;;;;;1.30;1.00;;;32.00;53.70;;;31.40;32.48;99909.16;12343001;23;96894;-96
2023/06/29 13:47:02;;;;;;;1.75;1.17;;;32.20;52.70;;;31.50;29.47;99910.84;12342287;23;96695;-96
2023/06/29 13:52:06;;;;;;;1.98;1.45;;;32.30;51.00;;;31.09;29.81;99914.56;12343256;23;96875;-96
2023/06/29 13:57:10;;;;;;;2.22;1.23;;;32.00;50.20;;;30.06;30.92;99918.66;12319229;23;96417;-96
2023/06/29 14:02:14;;;;;;;4.90;1.10;;;31.00;50.50;;;29.00;32.57;99908.44;12341084;23;96885;-96
2023/06/29 14:07:21;;;;;;;3.17;1.40;;;29.90;51.70;;;28.23;33.94;99913.25;12342347;23;96950;-96
2023/06/29 14:12:25;;;;;;;2.25;1.10;;;29.20;52.70;;;27.65;35.20;99910.56;12340690;23;97041;-95
2023/06/29 14:17:29;;;;;;;2.72;1.23;;;28.60;53.60;;;27.66;36.55;99896.66;12352608;23;96409;-95
2023/06/29 14:22:33;;;;;;;3.17;1.30;;;28.60;56.60;;;27.95;37.15;99902.13;12327461;23;96704;-93
2023/06/29 14:27:37;;;;;;;1.65;1.20;;;28.90;55.80;;;28.41;36.87;99900.75;12341811;23;96939;-95
2023/06/29 14:32:41;;;;;;;2.05;1.30;;;29.50;55.90;;;28.75;35.28;99892.38;12343254;23;97364;-94
2023/06/29 14:37:45;;;;;;;2.08;1.50;;;30.00;54.20;;;29.13;35.33;99884.97;12342706;23;97373;-95
2023/06/29 14:42:49;;;;;;;1.42;1.10;;;30.50;54.20;;;29.34;33.83;99877.25;12342299;23;96428;-93
2023/06/29 14:47:52;;;;;;;2.63;1.30;;;30.90;52.60;;;29.64;33.13;99877.84;12322616;23;96857;-94
2023/06/29 14:52:56;;;;;;;1.90;1.20;;;31.40;52.40;;;29.77;33.10;99875.13;12341811;23;96668;-96
2023/06/29 14:58:00;;;;;;;3.17;1.20;;;31.80;52.00;;;30.13;32.87;99873.63;12320580;23;97022;-95
2023/06/29 15:03:04;;;;;;;1.98;1.20;;;32.20;51.60;;;30.76;31.90;99868.13;12343797;23;96529;-96
2023/06/29 15:08:08;;;;;;;1.50;1.20;;;32.80;50.60;;;31.15;29.79;99866.66;12322970;23;96600;-96
2023/06/29 15:13:12;;;;;;;3.47;2.58;;;33.00;48.90;;;31.25;29.91;99857.38;12343656;23;96564;-94
2023/06/29 15:18:15;;;;;;;1.85;1.25;;;32.70;49.20;;;31.18;29.78;99866.03;12343485;23;96432;-93
2023/06/29 15:23:19;;;;;;;2.00;1.52;;;32.50;48.80;;;30.96;29.63;99863.31;12321124;23;96428;-92
2023/06/29 15:28:24;;;;;;;2.60;1.73;;;32.40;48.60;;;30.79;30.79;99853.00;12342579;23;96723;-95
2023/06/29 15:33:28;;;;;;;3.17;1.50;;;32.50;49.10;;;30.72;31.37;99853.44;12344175;23;96506;-94
2023/06/29 15:38:33;;;;;;;5.03;1.63;;;32.50;49.10;;;30.93;31.12;99853.75;12344743;23;96840;-95
2023/06/29 15:43:37;;;;;;;3.35;1.50;;;32.70;49.10;;;31.23;30.80;99846.69;12343710;23;97024;-96
2023/06/29 15:48:41;;;;;;;2.17;1.63;;;33.00;48.90;;;31.35;30.14;99841.44;12345045;23;97324;-96
2023/06/29 15:53:45;;;;;;;2.85;1.40;;;33.10;48.30;;;31.22;29.66;99852.50;12343040;23;96705;-96
2023/06/29 15:58:48;;;;;;;4.55;1.70;;;32.80;48.00;;;30.41;30.46;99836.84;12368795;23;96438;-96
2023/06/29 16:03:52;;;;;;;3.05;1.70;;;31.90;48.60;;;29.50;31.87;99837.53;12345224;23;96339;-95
2023/06/29 16:08:56;;;;;;;2.00;1.60;;;30.70;49.90;;;28.78;33.23;99842.56;12368335;23;96554;-96
2023/06/29 16:14:00;;;;;;;1.75;1.63;;;29.90;50.80;;;28.50;34.02;99836.97;12370807;23;96308;-96
2023/06/29 16:19:04;;;;;;;2.20;1.65;;;29.60;51.90;;;28.56;33.92;99826.78;12368726;23;96574;-96
2023/06/29 16:24:09;;;;;;;1.95;1.60;;;29.50;52.00;;;28.93;33.60;99830.59;12342900;23;96765;-95
2023/06/29 16:29:13;;;;;;;3.97;1.60;;;29.70;51.80;;;29.17;33.14;99827.75;12347096;23;96984;-96
2023/06/29 16:34:17;;;;;;;1.90;1.60;;;29.90;52.10;;;29.06;33.77;99825.16;12348040;23;96489;-96
2023/06/29 16:39:20;;;;;;;2.42;1.80;;;30.00;51.90;;;28.63;34.52;99824.47;12370472;23;96666;-96
2023/06/29 16:44:24;;;;;;;2.00;1.80;;;29.60;52.10;;;28.14;35.35;99830.34;12319840;23;96550;-95
2023/06/29 16:49:29;;;;;;;3.40;1.65;;;29.10;52.70;;;27.99;36.09;99823.13;12321976;23;97118;-96
2023/06/29 16:54:34;;;;;;;1.92;1.23;;;29.00;53.40;;;28.22;35.85;99826.94;12321391;23;96395;-95
2023/06/29 16:59:37;;;;;;;2.08;1.63;;;29.20;53.50;;;28.46;34.69;99827.72;12344640;23;96883;-96
2023/06/29 17:04:41;;;;;;;3.45;1.55;;;29.50;53.10;;;28.59;34.79;99826.16;12321472;23;97217;-96
2023/06/29 17:09:45;;;;;;;1.58;1.30;;;29.60;52.90;;;28.74;34.24;99819.66;12345870;23;96419;-96
2023/06/29 17:14:48;;;;;;;1.98;1.52;;;29.80;52.70;;;28.64;34.41;99817.09;12344264;23;96521;-96
2023/06/29 17:19:52;;;;;;;2.58;1.67;;;29.60;52.50;;;28.56;34.92;99825.97;12321624;23;96560;-95
2023/06/29 17:24:55;;;;;;;5.10;1.80;;;29.50;53.00;;;28.20;36.08;99835.44;12343050;23;96494;-96
2023/06/29 17:29:59;;;;;;;3.05;2.22;;;29.20;53.90;;;27.69;36.49;99835.22;12343604;23;96710;-95
2023/06/29 17:35:03;;;;;;;4.65;1.98;;;28.70;54.00;;;27.14;37.74;99835.47;12318850;23;96598;-95
2023/06/29 17:40:08;;;;;;;3.63;1.80;;;28.10;54.80;;;26.71;39.76;99842.59;12342371;23;96942;-96
2023/06/29 17:45:11;;;;;;;4.03;1.65;;;27.60;56.10;;;26.25;41.03;99834.66;12340446;23;96790;-96
2023/06/29 17:50:15;;;;;;;3.08;1.60;;;27.20;57.30;;;25.89;42.13;99839.44;12339192;23;96911;-96
2023/06/29 17:55:19;;;;;;;4.03;1.40;;;26.90;58.60;;;25.53;43.11;99834.06;12366473;23;96919;-96
2023/06/29 18:00:23;;;;;;;3.47;1.38;;;26.50;59.40;;;25.15;44.42;99840.91;12320398;23;96880;-96
2023/06/29 18:05:26;;;;;;;2.38;1.67;;;26.10;60.20;;;24.78;45.26;99839.25;12341060;23;96551;-95
2023/06/29 18:10:30;;;;;;;2.00;1.30;;;25.80;61.10;;;24.51;46.23;99847.63;12322317;23;96356;-96
2023/06/29 18:15:34;;;;;;;3.95;1.52;;;25.50;62.20;;;24.19;47.26;99847.78;12320116;23;96790;-96
2023/06/29 18:20:37;;;;;;;2.67;1.80;;;25.10;63.10;;;23.85;47.99;99852.75;12325703;23;96498;-96
2023/06/29 18:25:41;;;;;;;2.17;1.52;;;24.80;63.90;;;23.57;48.97;99855.81;12351969;23;96885;-95
2023/06/29 18:30:45;;;;;;;10.15;2.13;;;24.50;64.70;;;23.32;50.11;99859.19;12324620;23;96858;-96
2023/06/29 18:35:49;;;;;;;2.45;1.73;;;24.30;65.50;;;23.06;50.99;99860.88;12366484;23;96621;-96
2023/06/29 18:40:53;;;;;;;4.18;1.98;;;24.00;66.20;;;22.82;51.57;99871.19;12373998;23;96547;-95
2023/06/29 18:45:57;;;;;;;1.85;1.38;;;23.70;67.00;;;22.57;51.93;99872.56;12371756;23;96438;-95
2023/06/29 18:51:01;;;;;;;3.92;1.98;;;23.50;67.50;;;22.36;51.81;99866.09;12346910;23;97294;-95
2023/06/29 18:56:05;;;;;;;3.35;2.15;;;23.30;67.80;;;22.21;52.35;99873.25;12346991;23;96699;-94
2023/06/29 19:01:08;;;;;;;2.25;1.60;;;23.10;68.10;;;22.06;53.00;99880.03;12323769;23;96411;-95
2023/06/29 19:06:12;;;;;;;3.65;1.98;;;23.00;68.60;;;21.87;53.51;99876.81;12369052;23;96380;-96
2023/06/29 19:11:15;;;;;;;3.13;2.00;;;22.80;69.00;;;21.62;54.41;99880.00;12328294;23;96434;-95
2023/06/29 19:16:19;;;;;;;2.40;1.60;;;22.60;69.80;;;21.41;55.21;99883.47;12343225;23;96790;-95
2023/06/29 19:21:24;;;;;;;2.33;1.55;;;22.40;70.50;;;21.22;55.68;99890.94;12345667;23;96467;-95
2023/06/29 19:26:41;;;;;;;3.65;1.65;;;22.20;71.00;;;21.09;56.30;99892.09;12348792;23;96376;-96
2023/06/29 19:31:45;;;;;;;1.80;1.50;;;22.00;71.40;;;21.02;56.57;99896.03;12345257;23;96700;-96
2023/06/29 19:36:49;;;;;;;4.97;1.80;;;21.90;71.70;;;20.96;56.74;99888.88;12321584;23;96442;-95
2023/06/29 19:41:53;;;;;;;3.55;1.90;;;21.90;72.00;;;20.91;56.91;99895.00;12344440;23;96767;-96
2023/06/29 19:46:57;;;;;;;3.30;1.60;;;21.80;72.30;;;20.79;57.54;99896.94;12346050;23;96487;-96
2023/06/29 19:52:01;;;;;;;2.80;1.77;;;21.70;72.60;;;20.63;57.79;99897.72;12348199;23;96625;-96
2023/06/29 19:57:07;;;;;;;2.20;1.67;;;21.50;73.10;;;20.54;57.53;99900.81;12346837;23;96417;-96
2023/06/29 20:02:10;;;;;;;2.33;1.80;;;21.50;73.30;;;20.57;57.50;99897.66;12346714;23;96861;-95
2023/06/29 20:07:14;;;;;;;4.20;1.80;;;21.50;73.30;;;20.58;57.83;99901.97;12345543;23;96744;-96
2023/06/29 20:12:19;;;;;;;2.63;1.50;;;21.50;73.30;;;20.58;57.61;99907.38;12368249;23;96479;-95
2023/06/29 20:17:23;;;;;;;3.20;1.50;;;21.50;73.10;;;20.58;57.41;99912.78;12370440;23;96777;-96
2023/06/29 20:22:27;;;;;;;2.67;1.50;;;21.50;73.10;;;20.51;57.62;99905.84;12347477;23;96444;-96
2023/06/29 20:27:30;;;;;;;3.20;1.70;;;21.40;73.10;;;20.42;57.67;99913.50;12324312;23;96452;-95
2023/06/29 20:32:37;;;;;;;2.33;1.63;;;21.30;73.50;;;20.34;58.49;99913.88;12324020;23;96484;-96
2023/06/29 20:37:40;;;;;;;2.20;1.60;;;21.30;73.90;;;20.18;59.24;99909.22;12370512;23;96421;-96
2023/06/29 20:42:44;;;;;;;2.20;1.40;;;21.10;74.20;;;19.98;59.85;99902.34;12323557;23;96393;-96
2023/06/29 20:47:48;;;;;;;2.42;1.90;;;21.00;74.90;;;19.87;60.97;99913.94;12324125;23;96577;-96
2023/06/29 20:52:51;;;;;;;4.40;2.00;;;20.80;75.50;;;19.66;61.64;99914.53;12372899;23;96337;-96
2023/06/29 20:57:58;;;;;;;2.63;1.55;;;20.70;76.00;;;19.49;62.19;99909.81;12329924;23;96450;-96
2023/06/29 21:03:04;;;;;;;3.60;1.52;;;20.50;77.30;;;19.38;63.16;99912.50;12347390;23;96423;-96
2023/06/29 21:08:09;;;;;;;2.75;1.77;;;20.30;77.30;;;19.23;63.68;99907.53;12371439;23;96375;-96